Weather at Fairmont Hot Springs Airport

Public forecast

Using degrees Celsius for public forecast. Weather courtesy of forecast.io.

Closest aviation weather report (METAR) to Fairmont Hot Springs Airport

Closest report is Cranbrook/Canadian Rockies International Airport, 43.4 nm (80.4 km) S.

2024/07/22 20:00 (retrieved 40 minutes ago)

CYXC 222000Z 04005KT 020V120 15SM SCT120 BKN250 35/11 A2998 RMK FU2ACC1CI2 FU SLP119 DENSITY ALT 6000FT

Closest aviation forecast (TAF) to Fairmont Hot Springs Airport

Closest forecast is Cranbrook/Canadian Rockies International Airport, 43.4 nm (80.4 km) S.

2024/07/22 19:42 (retrieved 58 minutes ago)

TAF CYXC 221840Z 2219/2307 12008KT P6SM SCT100 BKN240 FM222200 VRB03KT P6SM SCT080 TEMPO 2222/2224 P6SM VCTS BKN080CB FM230000 18007KT P6SM SCT100 RMK NXT FCST BY 230100Z